createdAt,value
2023-04-14T00:02:00.077Z,100.00
2023-04-14T00:04:27.838Z,100.00
2023-04-14T00:06:58.499Z,100.00
2023-04-14T00:09:26.346Z,100.00
2023-04-14T00:11:53.793Z,100.00
2023-04-14T00:14:20.985Z,100.00
2023-04-14T00:16:49.063Z,100.00
2023-04-14T00:19:16.163Z,100.00
2023-04-14T00:21:43.702Z,100.00
2023-04-14T00:24:10.874Z,100.00
2023-04-14T00:26:38.579Z,100.00
2023-04-14T00:29:05.811Z,100.00
2023-04-14T00:31:33.314Z,100.00
2023-04-14T00:34:01.250Z,100.00
2023-04-14T00:36:32.308Z,100.00
2023-04-14T00:39:01.398Z,100.00
2023-04-14T00:41:34.081Z,100.00
2023-04-14T00:44:02.961Z,100.00
2023-04-14T00:46:30.723Z,100.00
2023-04-14T00:48:57.920Z,100.00
2023-04-14T00:51:27.187Z,100.00
2023-04-14T00:53:55.235Z,100.00
2023-04-14T00:56:23.755Z,100.00
2023-04-14T00:58:52.202Z,100.00
2023-04-14T01:01:20.546Z,100.00
2023-04-14T01:03:48.265Z,100.00
2023-04-14T01:06:16.425Z,100.00
2023-04-14T01:08:43.686Z,100.00
2023-04-14T01:11:37.995Z,100.00
2023-04-14T01:14:14.106Z,100.00
2023-04-14T01:16:42.669Z,100.00
2023-04-14T01:19:28.834Z,100.00
2023-04-14T01:21:58.187Z,100.00
2023-04-14T01:24:59.456Z,100.00
2023-04-14T01:27:53.606Z,100.00
2023-04-14T01:30:39.287Z,100.00
2023-04-14T01:33:08.691Z,100.00
2023-04-14T01:35:45.868Z,100.00
2023-04-14T01:38:26.125Z,100.00
2023-04-14T01:40:57.633Z,100.00
2023-04-14T01:43:27.361Z,100.00
2023-04-14T01:45:58.445Z,100.00
2023-04-14T01:48:26.573Z,100.00
2023-04-14T01:50:55.532Z,100.00
2023-04-14T01:53:24.527Z,100.00
2023-04-14T01:55:53.316Z,100.00
2023-04-14T01:58:22.631Z,100.00
2023-04-14T02:00:51.668Z,100.00
2023-04-14T02:03:19.872Z,100.00
2023-04-14T02:05:47.688Z,100.00
2023-04-14T02:08:16.923Z,100.00
2023-04-14T02:10:49.132Z,100.00
2023-04-14T02:13:18.673Z,100.00
2023-04-14T02:15:51.266Z,100.00
2023-04-14T02:18:22.580Z,100.00
2023-04-14T02:20:52.743Z,100.00
2023-04-14T02:23:20.202Z,100.00
2023-04-14T02:25:55.753Z,100.00
2023-04-14T02:28:27.114Z,100.00
2023-04-14T02:30:56.756Z,100.00
2023-04-14T02:33:29.708Z,100.00
2023-04-14T02:36:09.811Z,100.00
2023-04-14T02:38:39.776Z,100.00
2023-04-14T02:41:22.179Z,100.00
2023-04-14T02:43:55.892Z,100.00
2023-04-14T02:46:24.674Z,100.00
2023-04-14T02:48:54.001Z,100.00
2023-04-14T02:51:22.442Z,100.00
2023-04-14T02:53:49.833Z,100.00
2023-04-14T02:56:25.778Z,100.00
2023-04-14T02:58:57.111Z,100.00
2023-04-14T03:01:26.140Z,100.00
2023-04-14T03:03:56.718Z,100.00
2023-04-14T03:06:25.086Z,100.00
2023-04-14T03:08:54.719Z,100.00
2023-04-14T03:11:23.275Z,100.00
2023-04-14T03:13:53.380Z,100.00
2023-04-14T03:16:21.360Z,100.00
2023-04-14T03:18:49.901Z,100.00
2023-04-14T03:21:19.333Z,100.00
2023-04-14T03:23:47.242Z,100.00
2023-04-14T03:26:18.480Z,100.00
2023-04-14T03:28:51.251Z,100.00
2023-04-14T03:31:19.862Z,100.00
2023-04-14T03:33:56.573Z,100.00
2023-04-14T03:36:31.612Z,100.00
2023-04-14T03:39:01.678Z,100.00
2023-04-14T03:41:37.999Z,100.00
2023-04-14T03:44:10.955Z,100.00
2023-04-14T03:46:38.348Z,100.00
2023-04-14T03:49:11.232Z,100.00
2023-04-14T03:51:40.999Z,100.00
2023-04-14T03:54:10.210Z,100.00
2023-04-14T03:56:41.321Z,100.00
2023-04-14T03:59:12.747Z,100.00
2023-04-14T04:01:42.044Z,100.00
2023-04-14T04:04:10.277Z,100.00
2023-04-14T04:06:37.666Z,100.00
2023-04-14T04:09:05.968Z,100.00
2023-04-14T04:11:34.540Z,100.00
2023-04-14T04:14:04.719Z,100.00
2023-04-14T04:16:35.876Z,100.00
2023-04-14T04:19:06.393Z,100.00
2023-04-14T04:21:42.191Z,100.00
2023-04-14T04:24:10.751Z,100.00
2023-04-14T04:26:39.812Z,100.00
2023-04-14T04:29:07.594Z,100.00
2023-04-14T04:31:35.009Z,100.00
2023-04-14T04:34:03.406Z,100.00
2023-04-14T04:36:37.130Z,100.00
2023-04-14T04:39:04.949Z,100.00
2023-04-14T04:41:37.057Z,100.00
2023-04-14T04:44:04.509Z,100.00
2023-04-14T04:46:44.149Z,100.00
2023-04-14T04:49:11.799Z,100.00
2023-04-14T04:51:38.891Z,100.00
2023-04-14T04:54:06.741Z,100.00
2023-04-14T04:56:34.246Z,100.00
2023-04-14T04:59:02.002Z,100.00
2023-04-14T05:01:29.856Z,100.00
2023-04-14T05:03:57.690Z,100.00
2023-04-14T05:06:25.162Z,100.00
2023-04-14T05:08:53.709Z,100.00
2023-04-14T05:11:21.335Z,100.00
2023-04-14T05:13:48.987Z,100.00
2023-04-14T05:16:17.389Z,100.00
2023-04-14T05:18:45.151Z,100.00
2023-04-14T05:21:13.328Z,100.00
2023-04-14T05:23:43.765Z,100.00
2023-04-14T05:28:43.645Z,100.00
2023-04-14T05:31:10.856Z,100.00
2023-04-14T05:33:38.832Z,100.00
2023-04-14T05:36:06.735Z,100.00
2023-04-14T05:38:37.864Z,100.00
2023-04-14T05:41:05.204Z,100.00
2023-04-14T05:43:33.034Z,100.00
2023-04-14T05:46:01.807Z,100.00
2023-04-14T05:48:31.098Z,100.00
2023-04-14T05:50:58.668Z,100.00
2023-04-14T05:53:26.326Z,100.00
2023-04-14T05:55:53.800Z,100.00
2023-04-14T05:58:21.801Z,100.00
2023-04-14T06:00:49.158Z,100.00
2023-04-14T06:03:17.146Z,100.00
2023-04-14T06:05:44.834Z,100.00
2023-04-14T06:08:12.420Z,100.00
2023-04-14T06:10:39.642Z,100.00
2023-04-14T06:13:08.800Z,100.00
2023-04-14T06:15:35.980Z,100.00
2023-04-14T06:18:03.712Z,100.00
2023-04-14T06:20:32.521Z,100.00
2023-04-14T06:23:01.262Z,100.00
2023-04-14T06:25:28.439Z,100.00
2023-04-14T06:27:56.167Z,100.00
2023-04-14T06:30:23.715Z,100.00
2023-04-14T06:32:54.486Z,100.00
2023-04-14T06:35:32.372Z,100.00
2023-04-14T06:38:03.940Z,100.00
2023-04-14T06:40:31.515Z,100.00
2023-04-14T06:42:59.175Z,100.00
2023-04-14T06:45:26.398Z,100.00
2023-04-14T06:47:54.314Z,100.00
2023-04-14T06:50:22.836Z,100.00
2023-04-14T06:52:50.625Z,100.00
2023-04-14T06:55:18.051Z,100.00
2023-04-14T06:57:45.673Z,100.00
2023-04-14T07:00:13.525Z,100.00
2023-04-14T07:02:41.185Z,100.00
2023-04-14T07:05:09.244Z,100.00
2023-04-14T07:07:37.839Z,100.00
2023-04-14T07:10:05.585Z,100.00
2023-04-14T07:12:33.659Z,100.00
2023-04-14T07:15:00.936Z,100.00
2023-04-14T07:17:28.663Z,100.00
2023-04-14T07:19:56.904Z,100.00
2023-04-14T07:22:25.074Z,100.00
2023-04-14T07:24:53.968Z,100.00
2023-04-14T07:27:21.526Z,100.00
2023-04-14T07:29:49.396Z,100.00
2023-04-14T07:32:17.069Z,100.00
2023-04-14T07:34:44.442Z,100.00
2023-04-14T07:37:12.248Z,100.00
2023-04-14T07:39:39.898Z,100.00
2023-04-14T07:42:07.529Z,100.00
2023-04-14T07:44:34.808Z,100.00
2023-04-14T07:47:02.496Z,100.00
2023-04-14T07:49:29.852Z,100.00
2023-04-14T07:51:57.828Z,100.00
2023-04-14T07:54:25.204Z,100.00
2023-04-14T07:56:52.758Z,100.00
2023-04-14T07:59:20.731Z,100.00
2023-04-14T08:01:48.804Z,100.00
2023-04-14T08:04:16.446Z,100.00
2023-04-14T08:06:44.135Z,100.00
2023-04-14T08:09:12.430Z,100.00
2023-04-14T08:11:40.183Z,100.00
2023-04-14T08:14:07.499Z,100.00
2023-04-14T08:16:37.017Z,100.00
2023-04-14T08:19:05.420Z,100.00
2023-04-14T08:21:33.320Z,100.00
2023-04-14T08:24:01.127Z,100.00
2023-04-14T08:26:28.786Z,100.00
2023-04-14T08:28:56.345Z,100.00
2023-04-14T08:31:24.960Z,100.00
2023-04-14T08:33:53.353Z,100.00
2023-04-14T08:36:21.185Z,100.00
2023-04-14T08:38:48.774Z,100.00
2023-04-14T08:41:19.576Z,100.00
2023-04-14T08:43:47.240Z,100.00
2023-04-14T08:46:16.571Z,100.00
2023-04-14T08:48:47.141Z,100.00
2023-04-14T08:51:23.407Z,100.00
2023-04-14T08:53:53.408Z,100.00
2023-04-14T08:56:21.765Z,100.00
2023-04-14T08:58:49.191Z,100.00
2023-04-14T09:01:17.097Z,100.00
2023-04-14T09:03:45.345Z,100.00
2023-04-14T09:06:13.403Z,100.00
2023-04-14T09:08:40.853Z,100.00
2023-04-14T09:11:08.727Z,100.00
2023-04-14T09:13:36.559Z,100.00
2023-04-14T09:16:04.497Z,100.00
2023-04-14T09:18:34.571Z,100.00
2023-04-14T09:21:29.010Z,100.00
2023-04-14T09:23:52.341Z,100.00
2023-04-14T09:26:20.188Z,100.00
2023-04-14T09:28:48.019Z,100.00
2023-04-14T09:31:16.064Z,100.00
2023-04-14T09:33:51.169Z,100.00
2023-04-14T09:36:27.914Z,100.00
2023-04-14T09:38:55.614Z,100.00
2023-04-14T09:41:26.051Z,100.00
2023-04-14T09:43:53.741Z,100.00
2023-04-14T09:46:21.829Z,100.00
2023-04-14T09:48:56.209Z,100.00
2023-04-14T09:51:33.442Z,100.00
2023-04-14T09:54:05.723Z,100.00
2023-04-14T09:56:33.655Z,100.00
2023-04-14T09:59:02.837Z,100.00
2023-04-14T10:01:34.125Z,100.00
2023-04-14T10:04:02.747Z,100.00
2023-04-14T10:06:33.930Z,100.00
2023-04-14T10:09:01.850Z,100.00
2023-04-14T10:11:32.890Z,100.00
2023-04-14T10:14:06.460Z,100.00
2023-04-14T10:16:34.928Z,100.00
2023-04-14T10:19:02.919Z,100.00
2023-04-14T10:21:31.342Z,100.00
2023-04-14T10:23:58.687Z,100.00
2023-04-14T10:26:27.196Z,100.00
2023-04-14T10:28:56.356Z,100.00
2023-04-14T10:31:43.620Z,100.00
2023-04-14T10:34:13.318Z,100.00
2023-04-14T10:36:40.702Z,100.00
2023-04-14T10:39:10.545Z,100.00
2023-04-14T10:41:44.018Z,100.00
2023-04-14T10:44:31.869Z,100.00
2023-04-14T10:47:02.356Z,100.00
2023-04-14T10:49:35.090Z,100.00
2023-04-14T10:52:04.920Z,100.00
2023-04-14T10:55:02.601Z,100.00
2023-04-14T10:57:30.416Z,100.00
2023-04-14T10:59:59.628Z,100.00
2023-04-14T11:02:32.599Z,100.00
2023-04-14T11:05:08.846Z,100.00
2023-04-14T11:07:46.602Z,100.00
2023-04-14T11:10:20.292Z,100.00
2023-04-14T11:13:05.099Z,100.00
2023-04-14T11:15:58.467Z,100.00
2023-04-14T11:18:46.309Z,100.00
2023-04-14T11:21:16.830Z,100.00
2023-04-14T11:23:44.420Z,100.00
2023-04-14T11:26:14.307Z,100.00
2023-04-14T11:28:43.642Z,100.00
2023-04-14T11:31:13.287Z,100.00
2023-04-14T11:33:42.340Z,100.00
2023-04-14T11:36:11.249Z,100.00
2023-04-14T11:38:41.793Z,100.00
2023-04-14T11:41:09.563Z,100.00
2023-04-14T11:43:38.163Z,100.00
2023-04-14T11:46:06.210Z,100.00
2023-04-14T11:48:33.536Z,100.00
2023-04-14T11:51:04.014Z,96.94
2023-04-14T11:53:32.451Z,99.03
2023-04-14T11:56:01.076Z,95.98
2023-04-14T11:58:29.108Z,96.12
2023-04-14T12:00:59.956Z,98.48
2023-04-14T12:03:29.525Z,98.12
2023-04-14T12:06:02.837Z,97.93
2023-04-14T12:08:31.272Z,96.46
2023-04-14T12:10:59.199Z,98.06
2023-04-14T12:13:27.236Z,94.83
2023-04-14T12:15:55.057Z,95.49
2023-04-14T12:18:23.027Z,94.69
2023-04-14T12:20:55.646Z,94.75
2023-04-14T12:23:23.721Z,96.55
2023-04-14T12:25:52.292Z,98.08
2023-04-14T12:28:29.316Z,97.33
2023-04-14T12:31:02.337Z,93.16
2023-04-14T12:33:31.646Z,92.06
2023-04-14T12:36:07.480Z,92.62
2023-04-14T12:38:34.844Z,91.01
2023-04-14T12:41:02.834Z,90.21
2023-04-14T12:43:32.973Z,89.25
2023-04-14T12:46:01.354Z,88.24
2023-04-14T12:48:39.168Z,88.98
2023-04-14T12:51:09.727Z,88.27
2023-04-14T12:53:39.043Z,86.33
2023-04-14T12:56:17.666Z,85.15
2023-04-14T12:58:49.702Z,86.24
2023-04-14T13:01:19.299Z,85.55
2023-04-14T13:03:50.465Z,84.00
2023-04-14T13:06:19.799Z,85.56
2023-04-14T13:08:54.626Z,87.90
2023-04-14T13:11:26.390Z,88.49
2023-04-14T13:13:54.066Z,89.64
2023-04-14T13:16:22.524Z,92.05
2023-04-14T13:18:53.714Z,93.23
2023-04-14T13:21:21.440Z,94.29
2023-04-14T13:23:48.734Z,93.16
2023-04-14T13:26:16.333Z,94.60
2023-04-14T13:28:43.602Z,93.89
2023-04-14T13:31:13.431Z,90.32
2023-04-14T13:33:41.167Z,91.47
2023-04-14T13:36:08.733Z,91.94
2023-04-14T13:38:36.545Z,88.86
2023-04-14T13:41:04.364Z,87.45
2023-04-14T13:43:33.170Z,87.05
2023-04-14T13:46:01.516Z,87.76
2023-04-14T13:48:29.048Z,86.67
2023-04-14T13:50:57.105Z,88.10
2023-04-14T13:53:24.984Z,84.83
2023-04-14T13:55:52.741Z,86.42
2023-04-14T13:58:20.375Z,85.55
2023-04-14T14:00:48.215Z,84.25
2023-04-14T14:03:16.029Z,81.48
2023-04-14T14:05:43.628Z,81.83
2023-04-14T14:08:14.421Z,83.93
2023-04-14T14:10:43.075Z,81.19
2023-04-14T14:13:10.597Z,77.76
2023-04-14T14:15:38.873Z,78.69
2023-04-14T14:18:06.959Z,79.46
2023-04-14T14:20:35.309Z,80.40
2023-04-14T14:23:02.539Z,80.13
2023-04-14T14:25:30.732Z,79.01
2023-04-14T14:27:58.503Z,78.15
2023-04-14T14:30:26.208Z,77.60
2023-04-14T14:32:53.587Z,77.13
2023-04-14T14:35:21.211Z,76.55
2023-04-14T14:37:48.546Z,76.79
2023-04-14T14:40:16.517Z,76.95
2023-04-14T14:42:44.904Z,79.12
2023-04-14T14:45:13.621Z,81.06
2023-04-14T14:47:40.869Z,80.99
2023-04-14T14:50:08.917Z,82.00
2023-04-14T14:52:36.337Z,81.55
2023-04-14T14:55:04.405Z,84.15
2023-04-14T14:57:31.813Z,86.75
2023-04-14T14:59:59.805Z,86.47
2023-04-14T15:02:27.469Z,88.44
2023-04-14T15:04:55.348Z,89.58
2023-04-14T15:07:22.663Z,89.15
2023-04-14T15:09:51.212Z,87.90
2023-04-14T15:12:18.531Z,88.39
2023-04-14T15:14:46.283Z,88.70
2023-04-14T15:17:13.664Z,88.75
2023-04-14T15:19:42.664Z,89.80
2023-04-14T15:22:10.559Z,89.54
2023-04-14T15:24:38.492Z,90.24
2023-04-14T15:27:06.196Z,88.98
2023-04-14T15:29:33.876Z,87.86
2023-04-14T15:32:01.547Z,87.74
2023-04-14T15:34:29.243Z,88.37
2023-04-14T15:36:56.578Z,89.50
2023-04-14T15:39:24.167Z,89.53
2023-04-14T15:41:51.582Z,89.97
2023-04-14T15:44:19.045Z,91.38
2023-04-14T15:46:46.473Z,92.55
2023-04-14T15:49:13.941Z,93.25
2023-04-14T15:51:41.423Z,94.59
2023-04-14T15:54:08.811Z,96.18
2023-04-14T15:56:36.168Z,96.84
2023-04-14T15:59:03.670Z,97.55
2023-04-14T16:01:31.190Z,98.55
2023-04-14T16:03:58.791Z,97.58
2023-04-14T16:06:26.724Z,98.12
2023-04-14T16:08:54.299Z,98.32
2023-04-14T16:11:21.500Z,99.16
2023-04-14T16:13:49.107Z,98.95
2023-04-14T16:16:16.572Z,99.09
2023-04-14T16:18:44.275Z,100.00
2023-04-14T16:21:11.872Z,99.48
2023-04-14T16:23:39.381Z,100.00
2023-04-14T16:26:06.601Z,100.00
2023-04-14T16:28:34.989Z,100.00
2023-04-14T16:31:03.117Z,100.00
2023-04-14T16:33:32.775Z,100.00
2023-04-14T16:36:07.328Z,99.37
2023-04-14T16:38:35.530Z,99.37
2023-04-14T16:41:03.593Z,98.96
2023-04-14T16:43:31.563Z,98.63
2023-04-14T16:46:07.251Z,99.75
2023-04-14T16:48:38.132Z,99.40
2023-04-14T16:51:09.380Z,100.00
2023-04-14T16:53:40.407Z,100.00
2023-04-14T16:56:11.455Z,100.00
2023-04-14T16:58:40.083Z,100.00
2023-04-14T17:01:07.527Z,100.00
2023-04-14T17:03:35.824Z,100.00
2023-04-14T17:06:03.351Z,100.00
2023-04-14T17:08:31.079Z,100.00
2023-04-14T17:10:58.641Z,100.00
2023-04-14T17:13:27.155Z,100.00
2023-04-14T17:16:02.399Z,100.00
2023-04-14T17:18:35.887Z,100.00
2023-04-14T17:21:03.430Z,100.00
2023-04-14T17:23:31.014Z,100.00
2023-04-14T17:25:58.930Z,100.00
2023-04-14T17:28:27.750Z,100.00
2023-04-14T17:30:55.835Z,100.00
2023-04-14T17:33:27.535Z,100.00
2023-04-14T17:35:55.746Z,100.00
2023-04-14T17:38:23.605Z,100.00
2023-04-14T17:40:52.047Z,100.00
2023-04-14T17:43:19.664Z,100.00
2023-04-14T17:45:50.603Z,100.00
2023-04-14T17:48:18.450Z,100.00
2023-04-14T17:50:46.542Z,100.00
2023-04-14T17:53:16.460Z,100.00
2023-04-14T17:55:43.987Z,100.00
2023-04-14T17:58:11.644Z,100.00
2023-04-14T18:00:39.416Z,100.00
2023-04-14T18:03:07.321Z,100.00
2023-04-14T18:05:34.631Z,100.00
2023-04-14T18:08:02.718Z,100.00
2023-04-14T18:10:29.931Z,100.00
2023-04-14T18:12:57.520Z,100.00
2023-04-14T18:15:24.957Z,100.00
2023-04-14T18:17:52.672Z,100.00
2023-04-14T18:20:24.987Z,100.00
2023-04-14T18:23:02.016Z,100.00
2023-04-14T18:28:03.823Z,100.00
2023-04-14T18:30:31.626Z,100.00
2023-04-14T18:33:00.982Z,100.00
2023-04-14T18:35:29.281Z,100.00
2023-04-14T18:37:56.937Z,100.00
2023-04-14T18:40:25.876Z,100.00
2023-04-14T18:42:55.472Z,100.00
2023-04-14T18:45:23.401Z,100.00
2023-04-14T18:47:51.398Z,100.00
2023-04-14T18:50:20.553Z,100.00
2023-04-14T18:53:03.322Z,100.00
2023-04-14T18:55:37.214Z,100.00
2023-04-14T18:58:13.636Z,100.00
2023-04-14T19:00:41.279Z,100.00
2023-04-14T19:03:09.255Z,100.00
2023-04-14T19:05:37.222Z,100.00
2023-04-14T19:08:05.245Z,100.00
2023-04-14T19:10:32.841Z,100.00
2023-04-14T19:13:00.815Z,100.00
2023-04-14T19:15:28.693Z,100.00
2023-04-14T19:17:56.400Z,100.00
2023-04-14T19:20:24.426Z,100.00
2023-04-14T19:22:52.416Z,100.00
2023-04-14T19:25:19.777Z,100.00
2023-04-14T19:27:47.423Z,100.00
2023-04-14T19:30:14.995Z,100.00
2023-04-14T19:32:42.869Z,100.00
2023-04-14T19:35:11.907Z,100.00
2023-04-14T19:37:39.945Z,100.00
2023-04-14T19:40:08.480Z,100.00
2023-04-14T19:42:36.750Z,100.00
2023-04-14T19:45:04.238Z,100.00
2023-04-14T19:47:32.292Z,100.00
2023-04-14T19:50:00.480Z,100.00
2023-04-14T19:52:28.335Z,100.00
2023-04-14T19:54:57.061Z,100.00
2023-04-14T19:57:25.186Z,100.00
2023-04-14T19:59:54.754Z,100.00
2023-04-14T20:02:23.328Z,100.00
2023-04-14T20:04:55.865Z,100.00
2023-04-14T20:07:23.614Z,100.00
2023-04-14T20:09:51.660Z,100.00
2023-04-14T20:12:19.819Z,100.00
2023-04-14T20:14:47.347Z,100.00
2023-04-14T20:17:15.142Z,100.00
2023-04-14T20:19:43.051Z,100.00
2023-04-14T20:22:10.730Z,100.00
2023-04-14T20:24:39.578Z,100.00
2023-04-14T20:27:07.173Z,100.00
2023-04-14T20:29:35.767Z,100.00
2023-04-14T20:32:04.481Z,100.00
2023-04-14T20:34:31.932Z,100.00
2023-04-14T20:36:59.849Z,100.00
2023-04-14T20:39:27.113Z,100.00
2023-04-14T20:41:55.029Z,100.00
2023-04-14T20:44:22.519Z,100.00
2023-04-14T20:46:50.541Z,100.00
2023-04-14T20:49:18.427Z,100.00
2023-04-14T20:51:47.187Z,100.00
2023-04-14T20:54:15.065Z,100.00
2023-04-14T20:56:42.838Z,100.00
2023-04-14T20:59:10.545Z,100.00
2023-04-14T21:01:38.846Z,100.00
2023-04-14T21:04:06.521Z,100.00
2023-04-14T21:06:34.471Z,100.00
2023-04-14T21:09:02.443Z,100.00
2023-04-14T21:11:30.280Z,100.00
2023-04-14T21:15:30.014Z,100.00
2023-04-14T21:16:45.558Z,100.00
2023-04-14T21:19:13.636Z,100.00
2023-04-14T21:21:42.021Z,100.00
2023-04-14T21:24:09.198Z,100.00
2023-04-14T21:26:37.056Z,100.00
2023-04-14T21:29:04.511Z,100.00
2023-04-14T21:31:32.678Z,100.00
2023-04-14T21:34:00.201Z,100.00
2023-04-14T21:36:27.954Z,100.00
2023-04-14T21:38:55.458Z,100.00
2023-04-14T21:41:23.489Z,100.00
2023-04-14T21:43:50.869Z,100.00
2023-04-14T21:46:18.734Z,100.00
2023-04-14T21:48:46.192Z,100.00
2023-04-14T21:51:13.874Z,100.00
2023-04-14T21:53:41.272Z,100.00
2023-04-14T21:56:11.101Z,100.00
2023-04-14T21:58:42.148Z,100.00
2023-04-14T22:01:10.545Z,100.00
2023-04-14T22:03:42.081Z,100.00
2023-04-14T22:06:13.746Z,100.00
2023-04-14T22:08:41.168Z,100.00
2023-04-14T22:11:09.154Z,100.00
2023-04-14T22:13:36.597Z,100.00
2023-04-14T22:16:04.357Z,100.00
2023-04-14T22:18:32.167Z,100.00
2023-04-14T22:20:59.960Z,100.00
2023-04-14T22:23:28.653Z,100.00
2023-04-14T22:25:56.454Z,100.00
2023-04-14T22:28:23.686Z,100.00
2023-04-14T22:30:51.275Z,100.00
2023-04-14T22:33:18.535Z,100.00
2023-04-14T22:35:46.330Z,100.00
2023-04-14T22:38:13.639Z,100.00
2023-04-14T22:40:42.442Z,100.00
2023-04-14T22:43:09.811Z,100.00
2023-04-14T22:45:44.179Z,100.00
2023-04-14T22:48:11.849Z,100.00
2023-04-14T22:50:39.520Z,100.00
2023-04-14T22:53:06.961Z,100.00
2023-04-14T22:55:34.870Z,100.00
2023-04-14T22:58:02.935Z,100.00
2023-04-14T23:00:30.501Z,100.00
2023-04-14T23:02:59.454Z,100.00
2023-04-14T23:05:27.288Z,100.00
2023-04-14T23:07:54.586Z,100.00
2023-04-14T23:10:22.184Z,100.00
2023-04-14T23:12:49.411Z,100.00
2023-04-14T23:15:17.318Z,100.00
2023-04-14T23:17:44.667Z,100.00
2023-04-14T23:20:12.866Z,100.00
2023-04-14T23:22:40.727Z,100.00
2023-04-14T23:25:09.365Z,100.00
2023-04-14T23:27:36.770Z,100.00
2023-04-14T23:30:05.594Z,100.00
2023-04-14T23:32:32.994Z,100.00
2023-04-14T23:35:00.850Z,100.00
2023-04-14T23:37:28.239Z,100.00
2023-04-14T23:39:55.940Z,100.00
2023-04-14T23:42:23.154Z,100.00
2023-04-14T23:44:50.692Z,100.00
2023-04-14T23:47:18.415Z,100.00
2023-04-14T23:49:46.037Z,100.00
2023-04-14T23:52:13.298Z,100.00
2023-04-14T23:54:40.910Z,100.00
2023-04-14T23:57:08.868Z,100.00
2023-04-14T23:59:36.339Z,100.00
